Time;durP1;ratioP1;P1;durP2;ratioP2;P2;SDS_P1;SDS_P2;PMS_P1;PMS_P2;Temp;Humidity;BMP_temperature;BMP_pressure;BME280_temperature;BME280_humidity;BME280_pressure;Samples;Min_cycle;Max_cycle;Signal;HPM_P1;HPM_P2
2022/03/14 00:02:16;;;;;;;;;2.00;2.00;;;;;10.47;100.00;101545.06;5077160;27;45225;-72
2022/03/14 00:04:48;;;;;;;;;2.75;2.00;;;;;10.44;100.00;101555.22;5076177;27;45227;-73
2022/03/14 00:07:13;;;;;;;;;4.00;2.75;;;;;10.38;100.00;101541.13;5076592;27;46192;-74
2022/03/14 00:09:39;;;;;;;;;4.50;1.75;;;;;10.47;100.00;101555.41;5076736;27;45218;-73
2022/03/14 00:12:07;;;;;;;;;1.00;1.00;;;;;10.50;100.00;101561.66;5076493;27;45382;-73
2022/03/14 00:14:33;;;;;;;;;4.75;1.00;;;;;10.46;100.00;101562.28;5075887;28;45743;-74
2022/03/14 00:17:08;;;;;;;;;1.25;1.25;;;;;10.41;100.00;101545.59;5076318;27;45444;-73
2022/03/14 00:19:34;;;;;;;;;4.00;1.25;;;;;10.48;100.00;101565.84;5076100;27;45414;-72
2022/03/14 00:22:00;;;;;;;;;1.00;1.00;;;;;10.49;100.00;101574.50;5076338;27;45345;-72
2022/03/14 00:24:26;;;;;;;;;2.25;2.25;;;;;10.47;100.00;101584.78;5076678;27;45469;-73
2022/03/14 00:26:54;;;;;;;;;3.75;1.00;;;;;10.47;100.00;101597.72;5075892;27;46480;-73
2022/03/14 00:29:21;;;;;;;;;3.25;2.00;;;;;10.42;100.00;101582.72;5076769;27;45172;-72
2022/03/14 00:31:47;;;;;;;;;2.00;2.00;;;;;10.49;100.00;101608.16;5088316;27;45393;-72
2022/03/14 00:34:14;;;;;;;;;3.00;1.25;;;;;10.39;100.00;101593.81;5077353;27;45346;-73
2022/03/14 00:36:43;;;;;;;;;2.00;2.00;;;;;10.38;100.00;101602.38;5076263;28;45673;-72
2022/03/14 00:39:09;;;;;;;;;2.00;2.00;;;;;10.47;100.00;101620.13;5075358;28;45864;-72
2022/03/14 00:41:35;;;;;;;;;1.50;1.00;;;;;10.47;100.00;101620.13;5076754;27;45314;-73
2022/03/14 00:44:02;;;;;;;;;2.00;2.00;;;;;10.49;100.00;101629.78;5076385;28;45185;-72
2022/03/14 00:46:28;;;;;;;;;2.00;2.00;;;;;10.55;100.00;101631.81;5076213;27;46629;-72
2022/03/14 00:48:55;;;;;;;;;1.00;1.00;;;;;10.57;100.00;101643.16;5075479;27;45527;-72
2022/03/14 00:51:21;;;;;;;;;2.75;1.50;;;;;10.56;100.00;101635.28;5076529;27;45431;-72
2022/03/14 00:53:50;;;;;;;;;2.00;2.00;;;;;10.68;100.00;101654.13;5075920;27;45485;-72
2022/03/14 00:56:17;;;;;;;;;2.00;1.00;;;;;10.71;100.00;101656.00;5076158;27;46444;-72
2022/03/14 00:58:43;;;;;;;;;1.25;1.25;;;;;10.68;100.00;101648.97;5088217;27;45500;-72
2022/03/14 01:01:08;;;;;;;;;1.00;1.00;;;;;10.75;100.00;101660.56;5084526;27;45436;-72
2022/03/14 01:03:35;;;;;;;;;1.25;1.00;;;;;10.66;100.00;101653.16;5096961;27;45558;-71
2022/03/14 01:06:00;;;;;;;;;0.50;0.50;;;;;10.70;100.00;101660.31;5094174;27;46397;-72
2022/03/14 01:08:26;;;;;;;;;3.25;1.50;;;;;10.79;100.00;101676.38;5076140;27;45381;-72
2022/03/14 01:10:52;;;;;;;;;1.00;1.00;;;;;10.78;100.00;101674.59;5075841;27;46212;-71
2022/03/14 01:13:18;;;;;;;;;1.00;1.00;;;;;10.80;100.00;101679.84;5079818;27;45553;-72
2022/03/14 01:15:44;;;;;;;;;1.50;1.50;;;;;10.79;100.00;101693.63;5087821;27;45437;-73
2022/03/14 01:18:10;;;;;;;;;1.75;1.00;;;;;10.78;100.00;101687.53;5079753;27;45161;-73
2022/03/14 01:20:36;;;;;;;;;2.50;1.50;;;;;10.83;100.00;101701.66;5079350;27;45270;-73
2022/03/14 01:23:02;;;;;;;;;1.75;1.00;;;;;10.86;100.00;101707.81;5079564;27;45251;-73
2022/03/14 01:25:28;;;;;;;;;2.50;1.00;;;;;10.80;100.00;101705.75;5079184;27;45381;-73
2022/03/14 01:27:54;;;;;;;;;1.75;1.00;;;;;10.84;100.00;101710.31;5060550;28;45845;-73
2022/03/14 01:30:21;;;;;;;;;3.25;2.25;;;;;10.87;100.00;101714.78;5079486;28;45384;-73
2022/03/14 01:32:47;;;;;;;;;2.00;1.00;;;;;10.90;100.00;101721.06;5079161;27;45390;-72
2022/03/14 01:35:13;;;;;;;;;1.25;1.25;;;;;10.93;100.00;101725.50;5077838;28;46238;-73
2022/03/14 01:37:39;;;;;;;;;2.50;1.00;;;;;10.93;100.00;101721.22;5079480;27;45237;-73
2022/03/14 01:40:08;;;;;;;;;2.00;2.00;;;;;10.97;100.00;101724.88;5079111;28;45218;-73
2022/03/14 01:42:34;;;;;;;;;2.50;0.50;;;;;10.92;100.00;101728.91;5079611;27;45493;-72
2022/03/14 01:45:00;;;;;;;;;2.75;1.75;;;;;10.88;100.00;101727.84;5078838;27;46010;-73
2022/03/14 01:47:28;;;;;;;;;1.75;1.00;;;;;10.93;100.00;101731.56;5086007;27;45789;-73
2022/03/14 01:49:53;;;;;;;;;1.75;1.00;;;;;10.94;100.00;101728.19;5091436;27;46815;-73
2022/03/14 01:52:20;;;;;;;;;2.00;0.50;;;;;10.83;100.00;101711.13;5079148;28;45169;-74
2022/03/14 01:54:47;;;;;;;;;1.25;1.25;;;;;10.94;100.00;101735.94;5078616;27;45377;-74
2022/03/14 01:57:14;;;;;;;;;4.50;1.00;;;;;10.92;100.00;101736.69;5078689;27;45847;-74
2022/03/14 01:59:40;;;;;;;;;1.50;1.50;;;;;10.96;100.00;101741.25;5079065;27;45516;-74
2022/03/14 02:02:06;;;;;;;;;2.50;1.00;;;;;10.94;100.00;101743.72;5079068;27;45325;-72
2022/03/14 02:04:33;;;;;;;;;2.00;1.25;;;;;10.91;100.00;101735.75;5078407;27;45440;-73
2022/03/14 02:06:59;;;;;;;;;1.00;1.00;;;;;10.92;100.00;101727.19;5078181;27;45199;-73
2022/03/14 02:09:25;;;;;;;;;0.50;0.25;;;;;10.97;100.00;101737.81;5078506;27;45384;-73
2022/03/14 02:11:56;;;;;;;;;2.25;1.25;;;;;10.96;100.00;101746.44;5078561;28;45413;-73
2022/03/14 02:14:23;;;;;;;;;2.00;0.25;;;;;10.94;100.00;101742.84;5078436;27;45309;-73
2022/03/14 02:16:49;;;;;;;;;5.25;1.50;;;;;10.97;100.00;101749.09;5078145;28;45231;-73
2022/03/14 02:19:15;;;;;;;;;1.75;1.00;;;;;10.97;100.00;101759.47;5078304;27;45356;-73
2022/03/14 02:21:41;;;;;;;;;1.50;1.50;;;;;10.96;100.00;101749.03;5078731;27;45520;-73
2022/03/14 02:24:07;;;;;;;;;1.25;1.00;;;;;10.87;100.00;101741.59;5077957;27;45232;-72
2022/03/14 02:26:40;;;;;;;;;2.00;1.00;;;;;10.95;100.00;101760.19;5078346;27;45327;-72
2022/03/14 02:29:09;;;;;;;;;2.00;0.25;;;;;10.93;100.00;101756.59;5078541;27;45306;-73
2022/03/14 02:31:38;;;;;;;;;2.00;1.00;;;;;10.93;100.00;101754.00;5078508;27;45455;-73
2022/03/14 02:34:06;;;;;;;;;5.00;2.00;;;;;10.93;100.00;101751.41;5078061;28;46204;-73
2022/03/14 02:36:32;;;;;;;;;1.00;1.00;;;;;10.92;100.00;101749.63;5078379;27;45325;-72
2022/03/14 02:38:58;;;;;;;;;2.00;2.00;;;;;10.90;100.00;101752.16;5078194;27;45467;-72
2022/03/14 02:41:25;;;;;;;;;1.75;1.75;;;;;10.94;100.00;101767.03;5060523;27;45346;-72
2022/03/14 02:43:51;;;;;;;;;3.50;2.00;;;;;10.89;100.00;101760.72;5077886;27;45445;-72
2022/03/14 02:46:17;;;;;;;;;2.00;1.00;;;;;10.89;100.00;101765.91;5077450;27;45463;-72
2022/03/14 02:48:44;;;;;;;;;5.50;2.00;;;;;10.88;100.00;101761.53;5077850;27;45280;-73
2022/03/14 02:51:10;;;;;;;;;3.50;2.00;;;;;10.89;100.00;101778.84;5079575;27;45267;-72
2022/03/14 02:53:35;;;;;;;;;1.00;1.00;;;;;10.92;100.00;101780.72;5090026;27;45482;-72
2022/03/14 02:56:01;;;;;;;;;1.00;1.00;;;;;10.87;100.00;101777.88;5057331;28;45389;-72
2022/03/14 02:58:29;;;;;;;;;3.00;2.00;;;;;10.87;100.00;101782.13;5064370;28;45436;-72
2022/03/14 03:00:56;;;;;;;;;3.25;1.00;;;;;10.90;100.00;101801.38;5076434;27;45385;-72
2022/03/14 03:03:22;;;;;;;;;4.75;2.00;;;;;10.90;100.00;101806.56;5077811;27;45431;-73
2022/03/14 03:05:48;;;;;;;;;4.25;2.50;;;;;10.86;100.00;101795.88;5077681;27;45400;-73
2022/03/14 03:08:14;;;;;;;;;3.50;2.00;;;;;10.79;100.00;101795.53;5093507;27;45338;-73
2022/03/14 03:10:42;;;;;;;;;3.00;2.25;;;;;10.80;100.00;101807.69;5078320;27;45242;-72
2022/03/14 03:13:10;;;;;;;;;1.50;1.00;;;;;10.84;100.00;101822.63;5077645;28;46612;-72
2022/03/14 03:15:37;;;;;;;;;3.25;2.00;;;;;10.74;100.00;101812.50;5077568;27;45352;-72
2022/03/14 03:18:04;;;;;;;;;2.00;2.00;;;;;10.79;100.00;101820.56;5077603;27;45305;-72
2022/03/14 03:20:30;;;;;;;;;3.50;1.00;;;;;10.84;100.00;101848.53;5077835;27;45422;-71
2022/03/14 03:22:56;;;;;;;;;3.25;2.00;;;;;10.84;100.00;101850.22;5077070;27;45566;-72
2022/03/14 03:25:22;;;;;;;;;1.25;1.00;;;;;10.80;100.00;101841.38;5077107;27;45686;-72
2022/03/14 03:27:48;;;;;;;;;4.00;1.00;;;;;10.83;100.00;101857.09;5077338;27;45397;-73
2022/03/14 03:30:15;;;;;;;;;3.75;2.00;;;;;10.84;100.00;101860.56;5077739;27;45290;-72
2022/03/14 03:32:41;;;;;;;;;2.50;2.25;;;;;10.88;100.00;101862.56;5079402;27;45566;-72
2022/03/14 03:35:07;;;;;;;;;1.00;1.00;;;;;10.91;100.00;101867.03;5087329;27;45850;-72
2022/03/14 03:37:34;;;;;;;;;3.00;1.00;;;;;10.84;100.00;101860.56;5077562;28;45313;-72
2022/03/14 03:40:01;;;;;;;;;4.75;1.50;;;;;10.93;100.00;101886.16;5076895;27;45467;-72
2022/03/14 03:42:26;;;;;;;;;1.75;1.75;;;;;10.87;100.00;101878.91;5076726;27;45474;-72
2022/03/14 03:44:52;;;;;;;;;4.75;3.00;;;;;10.93;100.00;101900.00;5077332;27;45887;-73
2022/03/14 03:47:18;;;;;;;;;3.00;2.00;;;;;10.92;100.00;101895.59;5077382;27;45367;-73
2022/03/14 03:49:44;;;;;;;;;1.00;1.00;;;;;10.95;100.00;101900.09;5075853;28;45565;-72
2022/03/14 03:52:10;;;;;;;;;3.00;1.75;;;;;10.93;100.00;101897.41;5077185;27;45381;-72
2022/03/14 03:54:36;;;;;;;;;3.00;2.50;;;;;10.90;100.00;101885.97;5076946;27;45342;-73
2022/03/14 03:57:03;;;;;;;;;1.25;1.25;;;;;10.94;100.00;101896.59;5076974;27;45446;-73
2022/03/14 03:59:29;;;;;;;;;2.75;2.00;;;;;10.97;100.00;101912.34;5077521;27;45386;-72
2022/03/14 04:01:55;;;;;;;;;1.00;1.00;;;;;10.94;100.00;101914.72;5076716;27;46364;-72
2022/03/14 04:04:22;;;;;;;;;2.00;1.25;;;;;10.87;100.00;101906.50;5076748;27;45235;-72
2022/03/14 04:06:51;;;;;;;;;2.50;1.50;;;;;10.90;100.00;101919.63;5077152;27;45838;-71
2022/03/14 04:09:17;;;;;;;;;4.25;2.00;;;;;10.86;100.00;101920.25;5077052;27;45572;-73
2022/03/14 04:11:43;;;;;;;;;1.75;1.50;;;;;10.80;100.00;101920.75;5076354;28;45334;-73
2022/03/14 04:14:10;;;;;;;;;3.75;2.00;;;;;10.72;100.00;101922.91;5077021;28;45211;-71
2022/03/14 04:16:41;;;;;;;;;3.00;3.00;;;;;10.69;100.00;101928.75;5076744;27;45320;-73
2022/03/14 04:19:07;;;;;;;;;2.25;1.00;;;;;10.59;100.00;101926.41;5086676;27;45489;-72
2022/03/14 04:21:37;;;;;;;;;2.50;1.00;;;;;10.62;100.00;101942.13;5078827;27;45290;-72
2022/03/14 04:24:05;;;;;;;;;4.25;1.00;;;;;10.60;100.00;101945.44;5076845;27;45500;-72
2022/03/14 04:26:30;;;;;;;;;4.75;1.50;;;;;10.56;100.00;101952.13;5087714;27;45456;-73
2022/03/14 04:28:56;;;;;;;;;2.50;1.75;;;;;10.56;100.00;101944.34;5085478;27;45602;-72
2022/03/14 04:31:22;;;;;;;;;3.50;2.00;;;;;10.52;100.00;101945.84;5078037;27;46011;-73
2022/03/14 04:33:48;;;;;;;;;1.00;1.00;;;;;10.48;100.00;101959.41;5100927;27;45370;-72
2022/03/14 04:36:14;;;;;;;;;3.00;3.00;;;;;10.43;100.00;101957.31;5073451;27;45251;-73
2022/03/14 04:38:40;;;;;;;;;3.25;1.00;;;;;10.29;100.00;101952.09;5102000;27;45494;-72
2022/03/14 04:41:06;;;;;;;;;5.75;2.00;;;;;10.34;100.00;101971.44;5083143;27;46305;-72
2022/03/14 04:43:31;;;;;;;;;3.50;2.00;;;;;10.34;100.00;101975.69;5080003;27;45359;-73
2022/03/14 04:45:57;;;;;;;;;2.50;1.50;;;;;10.36;100.00;101980.19;5075556;27;45408;-73
2022/03/14 04:48:23;;;;;;;;;0.75;0.75;;;;;10.31;100.00;101981.56;5084868;27;46011;-73
2022/03/14 04:50:50;;;;;;;;;4.00;2.25;;;;;10.31;100.00;101981.56;5095940;27;45444;-73
2022/03/14 04:53:17;;;;;;;;;2.00;2.00;;;;;10.36;100.00;101992.22;5079398;27;45403;-73
2022/03/14 04:55:44;;;;;;;;;2.00;2.00;;;;;10.36;100.00;101995.72;5079758;27;45383;-74
2022/03/14 04:58:14;;;;;;;;;2.00;2.00;;;;;10.32;100.00;101996.31;5087651;27;45591;-72
2022/03/14 05:00:41;;;;;;;;;2.75;2.00;;;;;10.36;100.00;102005.16;5086005;27;45460;-74
2022/03/14 05:03:09;;;;;;;;;3.00;3.00;;;;;10.34;100.00;102009.34;5085123;27;47060;-73
2022/03/14 05:05:35;;;;;;;;;5.25;2.00;;;;;10.29;100.00;102006.47;5081021;27;45480;-73
2022/03/14 05:08:02;;;;;;;;;4.25;4.25;;;;;10.30;100.00;102005.66;5078549;27;45257;-73
2022/03/14 05:10:28;;;;;;;;;7.00;3.00;;;;;10.28;100.00;101996.03;5091826;27;45995;-74
2022/03/14 05:12:54;;;;;;;;;4.00;3.00;;;;;10.25;100.00;101999.31;5084866;27;45568;-73
2022/03/14 05:15:19;;;;;;;;;3.75;2.00;;;;;10.24;100.00;102020.81;5077740;27;45341;-73
2022/03/14 05:17:45;;;;;;;;;2.00;2.00;;;;;10.22;100.00;102035.34;5076079;27;45499;-73
2022/03/14 05:20:12;;;;;;;;;3.25;2.25;;;;;10.23;100.00;102043.19;5090627;27;45361;-73
2022/03/14 05:22:48;;;;;;;;;1.75;1.75;;;;;10.26;100.00;102046.78;5085209;27;45734;-73
2022/03/14 05:25:17;;;;;;;;;3.00;2.00;;;;;10.24;100.00;102046.69;5075446;27;45266;-73
2022/03/14 05:27:43;;;;;;;;;6.00;5.50;;;;;10.22;100.00;102048.28;5076431;27;45487;-73
2022/03/14 05:30:09;;;;;;;;;3.50;3.00;;;;;10.14;100.00;102052.06;5077685;27;45991;-73
2022/03/14 05:32:36;;;;;;;;;3.75;3.00;;;;;10.07;100.00;102054.22;5091945;27;45404;-74
2022/03/14 05:35:03;;;;;;;;;2.00;2.00;;;;;10.04;100.00;102053.13;5093918;27;45485;-73
2022/03/14 05:37:29;;;;;;;;;3.00;1.25;;;;;9.95;100.00;102034.41;5077507;27;45384;-73
2022/03/14 05:39:56;;;;;;;;;3.50;3.00;;;;;9.90;100.00;102045.31;5081127;27;45516;-73
2022/03/14 05:42:23;;;;;;;;;2.00;2.00;;;;;9.88;100.00;102049.50;5094460;27;45353;-74
2022/03/14 05:44:48;;;;;;;;;3.00;3.00;;;;;9.84;100.00;102055.25;5077269;27;45369;-73
2022/03/14 05:47:14;;;;;;;;;2.75;2.25;;;;;9.78;100.00;102051.38;5082336;27;45651;-72
2022/03/14 05:49:40;;;;;;;;;5.00;2.50;;;;;9.82;100.00;102058.56;5094106;27;46280;-74
2022/03/14 05:52:07;;;;;;;;;4.25;4.00;;;;;9.85;100.00;102061.31;5078611;27;45503;-72
2022/03/14 05:54:34;;;;;;;;;4.75;3.75;;;;;9.84;100.00;102070.78;5078273;27;45356;-72
2022/03/14 05:57:00;;;;;;;;;2.75;2.75;;;;;9.84;100.00;102070.78;5078258;27;45496;-73
2022/03/14 05:59:27;;;;;;;;;6.25;3.75;;;;;9.86;100.00;102082.13;5079729;27;45246;-73
2022/03/14 06:01:52;;;;;;;;;5.50;3.00;;;;;9.84;100.00;102081.13;5087679;27;45667;-73
2022/03/14 06:04:18;;;;;;;;;5.00;3.00;;;;;9.85;100.00;102084.59;5086794;27;45525;-74
2022/03/14 06:06:44;;;;;;;;;5.75;3.25;;;;;9.82;100.00;102093.06;5097543;27;45521;-73
2022/03/14 06:09:09;;;;;;;;;3.00;3.00;;;;;9.83;100.00;102094.84;5087202;27;45960;-73
2022/03/14 06:11:38;;;;;;;;;3.75;3.00;;;;;9.81;100.00;102091.25;5079742;27;45324;-73
2022/03/14 06:14:03;;;;;;;;;4.25;4.25;;;;;9.78;100.00;102080.69;5079427;27;45247;-73
2022/03/14 06:16:29;;;;;;;;;3.75;3.50;;;;;9.90;100.00;102106.53;5090982;27;45250;-73
2022/03/14 06:18:55;;;;;;;;;5.50;3.00;;;;;9.94;100.00;102100.75;5077872;28;46502;-73
2022/03/14 06:21:21;;;;;;;;;4.00;3.00;;;;;9.94;100.00;102103.34;5094129;27;45791;-73
2022/03/14 06:23:47;;;;;;;;;6.75;4.75;;;;;9.98;100.00;102107.94;5084314;27;45201;-72
2022/03/14 06:26:14;;;;;;;;;3.50;3.50;;;;;9.94;100.00;102098.16;5088370;27;45551;-74
2022/03/14 06:28:40;;;;;;;;;4.75;3.50;;;;;10.01;100.00;102110.75;5077552;27;46279;-73
2022/03/14 06:31:08;;;;;;;;;5.75;3.00;;;;;9.95;100.00;102107.72;5077417;27;45847;-73
2022/03/14 06:33:34;;;;;;;;;10.25;3.00;;;;;10.04;100.00;102121.28;5077688;27;45343;-73
2022/03/14 06:36:00;;;;;;;;;5.75;4.00;;;;;10.06;100.00;102131.75;5079109;27;45432;-73
2022/03/14 06:38:26;;;;;;;;;5.75;4.25;;;;;10.09;100.00;102139.72;5084016;27;45535;-73
2022/03/14 06:40:54;;;;;;;;;3.50;2.50;;;;;10.13;100.00;102148.59;5076109;27;45823;-73
2022/03/14 06:43:21;;;;;;;;;5.25;3.50;;;;;10.10;100.00;102145.78;5079743;27;45476;-73
2022/03/14 06:45:47;;;;;;;;;6.75;5.25;;;;;10.11;100.00;102145.00;5078950;27;45686;-72
2022/03/14 06:48:13;;;;;;;;;5.25;5.25;;;;;10.19;100.00;102168.03;5079847;27;45366;-73
2022/03/14 06:50:38;;;;;;;;;4.25;4.25;;;;;10.20;100.00;102172.38;5078326;27;45242;-72
2022/03/14 06:53:08;;;;;;;;;6.50;3.50;;;;;10.09;100.00;102152.66;5078639;27;45410;-73
2022/03/14 06:55:33;;;;;;;;;4.00;4.00;;;;;10.10;100.00;102157.03;5089231;27;45461;-77
2022/03/14 06:57:59;;;;;;;;;6.75;5.25;;;;;10.12;100.00;102167.50;5085977;27;46025;-73
2022/03/14 07:00:28;;;;;;;;;6.50;5.00;;;;;10.16;100.00;102166.91;5079626;27;45509;-73
2022/03/14 07:02:54;;;;;;;;;5.00;5.00;;;;;10.18;100.00;102165.31;5082235;27;45388;-74
2022/03/14 07:05:23;;;;;;;;;8.25;6.50;;;;;10.15;100.00;102163.44;5086719;27;45353;-74
2022/03/14 07:07:53;;;;;;;;;6.00;5.00;;;;;10.09;100.00;102168.19;5076715;27;45659;-75
2022/03/14 07:10:19;;;;;;;;;6.00;6.00;;;;;10.17;100.00;102189.41;5077299;27;45266;-77
2022/03/14 07:12:46;;;;;;;;;7.00;6.00;;;;;10.18;100.00;102204.13;5077901;27;45446;-80
2022/03/14 07:15:14;;;;;;;;;9.75;3.75;;;;;10.12;100.00;102207.19;5078317;27;45215;-80
2022/03/14 07:17:40;;;;;;;;;6.50;6.25;;;;;10.13;100.00;102214.19;5078963;27;46011;-78
2022/03/14 07:20:06;;;;;;;;;9.00;7.50;;;;;10.11;100.00;102227.81;5075835;27;46060;-78
2022/03/14 07:22:33;;;;;;;;;6.00;5.50;;;;;10.03;100.00;102215.25;5073552;28;45435;-74
2022/03/14 07:24:59;;;;;;;;;5.75;5.00;;;;;10.03;100.00;102220.44;5076730;27;45378;-73
2022/03/14 07:27:24;;;;;;;;;11.25;4.50;;;;;9.98;100.00;102220.91;5076548;28;45933;-73
2022/03/14 07:29:50;;;;;;;;;6.00;5.00;;;;;9.97;100.00;102232.03;5067813;28;45351;-73
2022/03/14 07:32:15;;;;;;;;;8.25;5.75;;;;;9.92;100.00;102229.13;5074734;28;45420;-74
2022/03/14 07:34:41;;;;;;;;;9.00;6.00;;;;;9.84;100.00;102225.06;5077617;27;45460;-74
2022/03/14 07:37:07;;;;;;;;;8.50;5.75;;;;;9.82;100.00;102227.56;5075114;27;45873;-73
2022/03/14 07:39:33;;;;;;;;;7.00;4.25;;;;;9.92;100.00;102236.88;5076449;27;45565;-75
2022/03/14 07:41:58;;;;;;;;;7.00;5.25;;;;;9.92;100.00;102247.22;5076019;27;45424;-74
2022/03/14 07:44:24;;;;;;;;;6.75;5.00;;;;;9.81;100.00;102241.28;5076679;27;45393;-78
2022/03/14 07:46:49;;;;;;;;;5.00;4.00;;;;;9.93;100.00;102259.38;5075147;27;46232;-75
2022/03/14 07:49:15;;;;;;;;;14.00;11.25;;;;;9.99;100.00;102264.09;5076628;27;45512;-75
2022/03/14 07:51:41;;;;;;;;;6.00;5.75;;;;;10.00;100.00;102268.44;5075870;27;45448;-75
2022/03/14 07:54:06;;;;;;;;;8.25;7.00;;;;;9.98;100.00;102276.09;5077282;27;45613;-75
2022/03/14 07:56:32;;;;;;;;;10.00;5.00;;;;;9.93;100.00;102271.41;5076396;27;45596;-76
2022/03/14 07:58:58;;;;;;;;;7.50;7.00;;;;;10.04;100.00;102288.59;5076271;27;45302;-74
2022/03/14 08:01:23;;;;;;;;;12.75;6.25;;;;;10.06;100.00;102289.59;5076446;27;45356;-75
2022/03/14 08:03:49;;;;;;;;;4.75;4.25;;;;;10.03;100.00;102279.94;5076125;27;45817;-74
2022/03/14 08:06:22;;;;;;;;;10.25;9.25;;;;;10.07;100.00;102284.53;5074989;27;45875;-74
2022/03/14 08:08:53;;;;;;;;;12.50;8.75;;;;;10.05;100.00;102280.03;5087945;27;45903;-74
2022/03/14 08:11:18;;;;;;;;;5.25;5.25;;;;;10.06;100.00;102279.25;5080622;27;45804;-74
2022/03/14 08:13:44;;;;;;;;;10.00;7.25;;;;;9.99;100.00;102277.91;5078426;27;45488;-74
2022/03/14 08:16:10;;;;;;;;;9.00;6.75;;;;;10.13;100.00;102301.28;5081766;27;45522;-75
2022/03/14 08:18:37;;;;;;;;;11.50;7.75;;;;;10.17;100.00;102299.03;5076758;27;45474;-74
2022/03/14 08:21:08;;;;;;;;;7.25;4.50;;;;;10.26;100.00;102313.38;5074321;27;45492;-75
2022/03/14 08:23:35;;;;;;;;;9.25;5.75;;;;;10.27;100.00;102305.72;5065298;27;45663;-74
2022/03/14 08:26:01;;;;;;;;;6.00;6.00;;;;;10.35;100.00;102320.13;5074922;27;46300;-74
2022/03/14 08:28:26;;;;;;;;;7.00;7.00;;;;;10.41;100.00;102314.50;5075125;27;45725;-74
2022/03/14 08:30:52;;;;;;;;;10.50;6.00;;;;;10.37;100.00;102302.09;5075855;27;45415;-74
2022/03/14 08:33:21;;;;;;;;;8.25;6.00;;;;;10.44;100.00;102303.47;5076342;28;45602;-74
2022/03/14 08:35:47;;;;;;;;;7.50;6.75;;;;;10.56;100.00;102312.09;5076188;27;45418;-74
2022/03/14 08:38:13;;;;;;;;;9.50;5.75;;;;;10.54;100.00;102311.06;5087626;27;45515;-75
2022/03/14 08:40:39;;;;;;;;;10.00;5.75;;;;;10.37;100.00;102281.38;5095419;27;45447;-75
2022/03/14 08:43:05;;;;;;;;;5.00;5.00;;;;;10.41;100.00;102286.03;5076948;27;45407;-75
2022/03/14 08:45:30;;;;;;;;;6.00;5.50;;;;;10.66;100.00;102335.22;5075389;27;46032;-75
2022/03/14 08:47:56;;;;;;;;;6.00;6.00;;;;;10.53;100.00;102314.44;5075206;27;45346;-75
2022/03/14 08:50:22;;;;;;;;;7.00;5.75;;;;;10.70;100.00;102333.75;5079416;27;45483;-74
2022/03/14 08:52:48;;;;;;;;;7.00;4.00;;;;;10.72;100.00;102337.34;5074556;28;45611;-74
2022/03/14 08:55:15;;;;;;;;;12.50;6.00;;;;;10.79;100.00;102344.75;5075759;27;46140;-74
2022/03/14 08:57:42;;;;;;;;;10.00;8.00;;;;;10.86;100.00;102351.25;5075514;27;45485;-74
2022/03/14 09:00:09;;;;;;;;;12.25;7.75;;;;;10.91;100.00;102351.56;5086926;27;45504;-74
2022/03/14 09:02:35;;;;;;;;;8.25;7.75;;;;;10.95;100.00;102345.81;5075683;27;45470;-74
2022/03/14 09:05:01;;;;;;;;;7.00;5.00;;;;;10.98;100.00;102346.91;5071111;27;45410;-81
2022/03/14 09:07:31;;;;;;;;;6.00;6.00;;;;;11.04;100.00;102342.91;5087141;27;45402;-78
2022/03/14 09:10:04;;;;;;;;;6.75;6.00;;;;;11.08;100.00;102352.69;5075460;27;45295;-76
2022/03/14 09:12:32;;;;;;;;;6.00;6.00;;;;;11.10;100.00;102354.59;5076115;27;45619;-77
2022/03/14 09:14:58;;;;;;;;;6.75;4.00;;;;;11.14;100.00;102359.22;5093945;27;45540;-76
2022/03/14 09:17:28;;;;;;;;;12.00;6.75;;;;;11.15;100.00;102354.91;5055418;28;45433;-77
2022/03/14 09:19:54;;;;;;;;;6.75;5.00;;;;;11.21;100.00;102354.41;5092682;27;45582;-77
2022/03/14 09:22:19;;;;;;;;;7.50;6.00;;;;;11.13;100.00;102336.66;5080840;27;45550;-77
2022/03/14 09:24:48;;;;;;;;;8.00;4.00;;;;;11.21;100.00;102351.81;5095667;27;45943;-74
2022/03/14 09:27:13;;;;;;;;;6.00;5.75;;;;;11.25;100.00;102357.31;5083733;27;45921;-77
2022/03/14 09:29:39;;;;;;;;;7.75;7.75;;;;;11.28;100.00;102356.66;5089753;27;45471;-78
2022/03/14 09:32:06;;;;;;;;;11.00;6.25;;;;;11.33;100.00;102355.25;5084695;27;45323;-87
2022/03/14 09:34:33;;;;;;;;;6.75;6.75;;;;;11.39;100.00;102360.81;5090177;27;45577;-79
2022/03/14 09:36:59;;;;;;;;;12.00;7.25;;;;;11.38;100.00;102359.06;5079278;27;45280;-79
2022/03/14 09:39:24;;;;;;;;;13.75;8.75;;;;;11.43;100.00;102357.66;5078867;27;45311;-78
2022/03/14 09:41:51;;;;;;;;;6.75;6.00;;;;;11.46;100.00;102356.94;5079718;27;45389;-78
2022/03/14 09:44:21;;;;;;;;;16.75;11.75;;;;;11.51;100.00;102367.63;5079501;27;45480;-76
2022/03/14 09:46:48;;;;;;;;;9.50;7.25;;;;;11.49;100.00;102367.53;5078088;27;45898;-77
2022/03/14 09:49:16;;;;;;;;;9.00;6.00;;;;;11.60;100.00;102366.53;5079045;27;45373;-77
2022/03/14 09:51:43;;;;;;;;;11.00;7.00;;;;;11.61;100.00;102367.44;5080022;27;45333;-78
2022/03/14 09:54:09;;;;;;;;;5.00;5.00;;;;;11.57;100.00;102350.78;5088058;27;45562;-76
2022/03/14 09:56:37;;;;;;;;;11.50;8.00;;;;;11.69;100.00;102367.94;5076874;28;45408;-75
2022/03/14 09:59:04;;;;;;;;;10.75;8.00;;;;;11.63;100.00;102346.78;5084222;27;45245;-74
2022/03/14 10:01:30;;;;;;;;;9.00;6.50;;;;;11.64;100.00;102352.06;5078136;27;45385;-74
2022/03/14 10:03:56;;;;;;;;;6.50;6.50;;;;;11.74;100.00;102358.78;5077721;27;45488;-75
2022/03/14 10:06:22;;;;;;;;;8.75;6.75;;;;;11.82;100.00;102361.88;5082597;27;45529;-75
2022/03/14 10:08:48;;;;;;;;;11.50;9.50;;;;;11.86;100.00;102369.94;5078672;27;45546;-74
2022/03/14 10:11:14;;;;;;;;;14.75;11.25;;;;;11.84;100.00;102357.66;5082729;27;45495;-75
2022/03/14 10:13:39;;;;;;;;;14.00;10.00;;;;;11.97;100.00;102373.22;5078669;27;45483;-77
2022/03/14 10:16:06;;;;;;;;;13.25;12.00;;;;;11.96;100.00;102362.75;5077327;27;45260;-77
2022/03/14 10:18:39;;;;;;;;;12.75;12.00;;;;;11.99;100.00;102373.34;5091898;27;45417;-77
2022/03/14 10:21:06;;;;;;;;;13.75;10.75;;;;;12.01;100.00;102364.88;5086705;27;45544;-77
2022/03/14 10:23:43;;;;;;;;;14.50;11.00;;;;;12.02;100.00;102370.94;5100933;27;46407;-76
2022/03/14 10:26:16;;;;;;;;;13.75;10.00;;;;;12.04;100.00;102370.25;5077780;27;45488;-76
2022/03/14 10:28:48;;;;;;;;;10.25;9.75;;;;;11.90;100.00;102345.97;5077979;27;45361;-75
2022/03/14 10:31:14;;;;;;;;;9.00;9.00;;;;;12.02;100.00;102358.88;5078550;28;45411;-75
2022/03/14 10:33:40;;;;;;;;;9.00;6.00;;;;;12.25;100.00;102387.09;5077489;28;46164;-75
2022/03/14 10:36:06;;;;;;;;;7.50;6.00;;;;;12.29;100.00;102402.09;5078172;27;45429;-75
2022/03/14 10:38:41;;;;;;;;;8.50;6.00;;;;;12.29;100.00;102397.78;5080567;27;45348;-73
2022/03/14 10:41:15;;;;;;;;;10.50;8.00;;;;;12.34;100.00;102392.88;5077415;27;45345;-73
2022/03/14 10:43:42;;;;;;;;;15.00;7.00;;;;;12.33;100.00;102394.59;5099093;27;45321;-72
2022/03/14 10:46:08;;;;;;;;;8.00;7.25;;;;;12.36;100.00;102392.16;5082525;27;45480;-75
2022/03/14 10:48:35;;;;;;;;;11.00;7.75;;;;;12.39;100.00;102389.75;5079037;28;45284;-72
2022/03/14 10:51:09;;;;;;;;;8.50;5.00;;;;;12.43;100.00;102384.78;5092581;27;45188;-72
2022/03/14 10:53:41;;;;;;;;;11.00;7.50;;;;;12.43;100.00;102376.97;5099076;27;45984;-74
2022/03/14 10:56:07;;;;;;;;;10.75;8.00;;;;;12.50;100.00;102389.53;5091006;27;45343;-73
2022/03/14 10:58:34;;;;;;;;;13.00;8.50;;;;;12.54;100.00;102384.63;5085950;27;45458;-76
2022/03/14 11:01:03;;;;;;;;;5.75;5.25;;;;;12.56;100.00;102383.81;5080605;27;45458;-72
2022/03/14 11:03:35;;;;;;;;;5.75;5.75;;;;;12.59;100.00;102397.00;5079345;27;45539;-73
2022/03/14 11:06:09;;;;;;;;;7.25;7.25;;;;;12.57;100.00;102389.13;5084136;27;45492;-74
2022/03/14 11:08:36;;;;;;;;;8.25;7.00;;;;;12.68;100.00;102402.78;5078499;27;45437;-73
2022/03/14 11:11:07;;;;;;;;;6.50;6.00;;;;;12.71;100.00;102405.56;5076991;28;45303;-73
2022/03/14 11:13:38;;;;;;;;;8.75;7.00;;;;;12.75;100.00;102391.94;5091459;27;46717;-73
2022/03/14 11:16:04;;;;;;;;;8.75;7.00;;;;;12.80;100.00;102393.13;5064866;28;45907;-76